VOCB/CJB METAR and TAF weather

Enter ICAO airport designator
Station Type Date Time Source
VOCB METAR 2022/01/19 20:30 UTC NOAA

VOCB 192030Z 02004KT 3500 HZ FEW015 SCT080 22/17 Q1014 NOSIG


Station Type Date Time Source
VOCB Decoded METAR 2022/01/19 20:30 UTC NOAA

Coimbatore / Peelamedu, India (VOCB) 11-02N 077-03E 399M
Jan 19, 2022 - 03:30 PM EST / 2022.01.19 2030 UTC
Wind: from the NNE (020 degrees) at 5 MPH (4 KT):0
Visibility: 2 mile(s):0
Sky conditions: partly cloudy
Weather: haze
Temperature: 71 F (22 C)
Dew Point: 62 F (17 C)
Relative Humidity: 73%
Pressure (altimeter): 29.94 in. Hg (1014 hPa)
ob: VOCB 192030Z 02004KT 3500 HZ FEW015 SCT080 22/17 Q1014 NOSIG
cycle: 20

Station Type Date Time Source
VOCB TAF 2022/01/19 18:00 UTC NOAA

TAF VOCB 191700Z 1918/2024 09005KT 5000 -DZ/HZ SCT015 SCT080
BECMG 1921/1922 02005KT 3000 -DZ/HZ
BECMG 2005/2006 07010KT 6000
BECMG 2005/2006 5000 HZ
BECMG 2008/2009 09010KT 6000
BECMG 2012/2013 5000 HZ
BECMG 2021/2022 02005KT 3000 BR

Example: see airport list